Time;durP1;ratioP1;P1;durP2;ratioP2;P2;SDS_P1;SDS_P2;PMS_P1;PMS_P2;Temp;Humidity;BMP_temperature;BMP_pressure;BME280_temperature;BME280_humidity;BME280_pressure;Samples;Min_cycle;Max_cycle;Signal;HPM_P1;HPM_P2
2021/12/14 00:01:14;;;;;;;276.20;163.40;;;;;;;4.84;49.72;100858.47;4398509;32;20274;-84
2021/12/14 00:03:44;;;;;;;298.77;168.63;;;;;;;4.70;50.29;100861.97;4381529;32;783320;-83
2021/12/14 00:06:12;;;;;;;368.10;197.50;;;;;;;4.71;49.96;100861.16;4400924;32;20329;-84
2021/12/14 00:08:50;;;;;;;369.23;201.48;;;;;;;4.73;50.10;100855.31;4398532;32;20280;-84
2021/12/14 00:11:28;;;;;;;332.33;179.15;;;;;;;4.81;50.00;100853.16;4407985;32;20315;-85
2021/12/14 00:14:27;;;;;;;311.62;172.25;;;;;;;5.00;49.43;100855.94;4404086;32;20325;-85
2021/12/14 00:16:49;;;;;;;310.13;172.43;;;;;;;4.87;49.90;100863.75;4398548;32;20295;-84
2021/12/14 00:19:18;;;;;;;318.12;174.07;;;;;;;4.75;50.17;100863.06;4406293;32;20265;-84
2021/12/14 00:21:52;;;;;;;324.23;173.57;;;;;;;4.94;49.72;100865.84;4385710;32;20298;-84
2021/12/14 00:24:21;;;;;;;334.40;177.15;;;;;;;4.84;49.86;100864.47;4397919;32;20279;-86
2021/12/14 00:26:52;;;;;;;347.23;186.05;;;;;;;4.89;49.52;100862.19;4400241;32;20274;-86
2021/12/14 00:29:32;;;;;;;362.50;194.18;;;;;;;5.00;49.59;100860.19;4405035;32;20636;-85
2021/12/14 00:32:03;;;;;;;402.08;207.62;;;;;;;5.10;49.03;100863.31;4402605;32;20389;-85
2021/12/14 00:34:42;;;;;;;532.65;217.48;;;;;;;4.70;49.86;100861.97;4407921;32;20293;-87
2021/12/14 00:37:15;;;;;;;474.95;215.48;;;;;;;4.94;49.15;100865.84;4407745;32;20269;-85
2021/12/14 00:39:46;;;;;;;423.47;211.77;;;;;;;4.88;49.20;100870.66;4408611;32;20626;-83
2021/12/14 00:42:14;;;;;;;394.45;209.60;;;;;;;5.00;49.00;100865.31;4384597;32;20370;-84
2021/12/14 00:44:41;;;;;;;384.02;206.02;;;;;;;4.89;49.37;100872.44;4393844;32;20297;-82
2021/12/14 00:47:09;;;;;;;374.92;201.45;;;;;;;5.08;49.19;100875.22;4412627;32;20434;-87
2021/12/14 00:49:36;;;;;;;399.57;210.27;;;;;;;5.03;48.84;100871.50;4402815;32;20572;-86
2021/12/14 00:52:05;;;;;;;396.02;208.35;;;;;;;4.94;48.90;100881.25;4411229;32;20747;-85
2021/12/14 00:54:35;;;;;;;389.33;208.13;;;;;;;5.03;48.74;100884.31;4401504;32;20655;-85
2021/12/14 00:57:03;;;;;;;380.42;203.80;;;;;;;4.99;48.90;100890.09;4404462;32;20332;-86
2021/12/14 00:59:35;;;;;;;380.77;203.85;;;;;;;4.86;49.30;100885.09;4390046;32;20353;-85
2021/12/14 01:02:08;;;;;;;375.20;201.05;;;;;;;5.05;48.77;100889.56;4401702;32;20584;-88
2021/12/14 01:04:40;;;;;;;363.42;196.05;;;;;;;5.03;48.90;100881.75;4403229;32;20301;-86
2021/12/14 01:07:09;;;;;;;368.17;196.95;;;;;;;5.10;48.61;100878.72;4399051;32;20291;-85
2021/12/14 01:09:39;;;;;;;407.52;209.07;;;;;;;5.15;48.55;100875.56;4395215;32;20277;-84
2021/12/14 01:12:14;;;;;;;388.80;207.45;;;;;;;4.79;49.31;100880.44;4410822;32;20334;-83
2021/12/14 01:15:00;;;;;;;383.27;203.07;;;;;;;4.85;49.23;100883.31;4424686;32;20281;-84
2021/12/14 01:20:16;;;;;;;386.50;206.00;;;;;;;4.97;49.28;100888.25;4388717;32;20270;-84
2021/12/14 01:22:46;;;;;;;484.48;211.65;;;;;;;5.06;48.76;100892.19;4398237;32;20290;-86
2021/12/14 01:25:24;;;;;;;515.33;212.07;;;;;;;5.18;47.94;100892.00;4393164;32;20326;-86
2021/12/14 01:27:55;;;;;;;546.97;214.32;;;;;;;4.88;48.52;100893.75;4412258;32;20277;-87
2021/12/14 01:30:50;;;;;;;619.33;230.10;;;;;;;4.97;48.24;100899.38;4413306;32;20349;-87
2021/12/14 01:33:19;;;;;;;630.97;227.73;;;;;;;4.62;49.81;100894.84;4404626;32;20317;-88
2021/12/14 01:35:48;;;;;;;620.58;227.93;;;;;;;4.48;50.48;100894.06;4389726;32;20556;-88
2021/12/14 01:38:33;;;;;;;608.53;226.05;;;;;;;4.63;49.86;100894.94;4405060;32;21106;-87
2021/12/14 01:41:07;;;;;;;594.85;222.98;;;;;;;4.76;49.88;100885.38;4400580;32;20261;-84
2021/12/14 01:43:52;;;;;;;602.90;225.95;;;;;;;4.72;49.84;100878.28;4404661;32;20279;-85
2021/12/14 01:46:24;;;;;;;608.92;223.23;;;;;;;4.85;49.53;100881.66;4398173;32;20248;-87
2021/12/14 01:48:53;;;;;;;633.35;227.02;;;;;;;4.89;49.34;100890.41;4401919;32;20325;-83
2021/12/14 01:51:22;;;;;;;633.80;235.77;;;;;;;4.82;49.33;100884.03;4411020;32;20265;-88
2021/12/14 01:53:51;;;;;;;631.67;228.48;;;;;;;4.80;49.49;100882.19;4408156;32;20294;-86
2021/12/14 01:56:21;;;;;;;660.47;230.30;;;;;;;4.85;48.86;100885.88;4416335;32;20659;-83
2021/12/14 01:58:52;;;;;;;656.42;230.57;;;;;;;4.69;49.63;100878.13;4398544;32;20266;-86
2021/12/14 02:01:23;;;;;;;641.33;230.60;;;;;;;4.64;49.99;100885.56;4404623;32;20618;-86
2021/12/14 02:03:57;;;;;;;656.87;229.27;;;;;;;4.55;49.81;100879.91;4401168;32;20293;-87
2021/12/14 02:06:32;;;;;;;665.70;229.48;;;;;;;4.67;49.32;100875.50;4396219;32;20259;-86
2021/12/14 02:09:13;;;;;;;649.42;228.75;;;;;;;4.71;49.33;100886.78;4397667;32;20572;-87
2021/12/14 02:11:52;;;;;;;656.87;230.82;;;;;;;4.74;49.35;100879.28;4397333;32;20263;-85
2021/12/14 02:14:20;;;;;;;690.07;230.87;;;;;;;4.87;48.88;100879.16;4398027;32;20291;-88
2021/12/14 02:16:54;;;;;;;710.78;237.77;;;;;;;4.84;48.68;100878.97;4373478;32;20321;-87
2021/12/14 02:19:23;;;;;;;730.70;235.25;;;;;;;4.53;49.38;100879.84;4264658;32;20390;-90
2021/12/14 02:21:52;;;;;;;774.22;236.20;;;;;;;4.52;49.72;100880.63;4395375;32;20842;-88
2021/12/14 02:24:22;;;;;;;765.67;238.18;;;;;;;4.36;50.09;100883.09;4401061;32;20655;-88
2021/12/14 02:26:57;;;;;;;756.28;242.23;;;;;;;4.70;49.62;100874.78;4396622;32;20298;-85
2021/12/14 02:29:34;;;;;;;761.92;242.73;;;;;;;4.71;49.32;100881.66;4407211;32;20281;-87
2021/12/14 02:32:05;;;;;;;771.63;236.05;;;;;;;4.71;48.78;100872.28;4407476;32;20348;-87
2021/12/14 02:34:38;;;;;;;755.65;239.23;;;;;;;4.74;48.77;100881.84;4408618;32;20339;-84
2021/12/14 02:37:06;;;;;;;734.53;235.25;;;;;;;4.74;48.87;100881.84;4412204;32;20293;-90
2021/12/14 02:42:09;;;;;;;1.73;1.62;;;;;;;4.66;49.01;100884.00;4399384;32;20264;-86
2021/12/14 02:44:38;;;;;;;1.85;1.75;;;;;;;4.48;49.60;100883.81;4399922;32;20687;-85
2021/12/14 02:47:10;;;;;;;2.00;1.90;;;;;;;4.58;49.44;100882.66;4399423;32;20288;-86
2021/12/14 02:49:39;;;;;;;2.60;2.50;;;;;;;4.51;50.08;100883.12;4407656;32;20283;-86
2021/12/14 02:52:11;;;;;;;1.98;1.87;;;;;;;4.45;50.19;100878.50;4402631;32;20278;-85
2021/12/14 02:54:46;;;;;;;132.65;118.43;;;;;;;3.79;52.32;100882.31;4404759;32;20298;-84
2021/12/14 02:57:20;;;;;;;103.97;93.53;;;;;;;4.22;51.22;100894.25;4401070;32;20827;-86
2021/12/14 02:59:48;;;;;;;32.40;29.30;;;;;;;4.23;51.34;100890.87;4406042;32;20271;-86
2021/12/14 03:02:18;;;;;;;149.55;126.32;;;;;;;4.31;50.87;100884.53;4401033;32;20263;-85
2021/12/14 03:04:57;;;;;;;137.87;122.47;;;;;;;3.98;52.19;100879.19;4408383;32;20270;-85
2021/12/14 03:07:29;;;;;;;136.32;121.53;;;;;;;4.00;52.11;100882.75;4399986;32;20671;-83
2021/12/14 03:12:53;;;;;;;2.10;2.00;;;;;;;4.33;51.45;100883.81;4408432;32;20291;-84
2021/12/14 03:15:24;;;;;;;2.08;1.98;;;;;;;4.23;51.46;100880.63;4410923;32;20267;-84
2021/12/14 03:17:57;;;;;;;136.95;122.15;;;;;;;4.49;50.88;100874.44;4410267;32;20394;-84
2021/12/14 03:20:32;;;;;;;138.27;121.90;;;;;;;4.35;51.67;100871.09;4406097;32;20278;-83
2021/12/14 03:23:05;;;;;;;148.45;126.18;;;;;;;4.29;51.93;100875.88;4402574;32;20280;-85
2021/12/14 03:25:36;;;;;;;153.00;127.47;;;;;;;4.20;52.30;100879.66;4405589;32;20716;-84
2021/12/14 03:28:04;;;;;;;179.57;136.30;;;;;;;4.44;51.88;100881.88;4399376;32;20279;-84
2021/12/14 03:30:35;;;;;;;171.87;133.73;;;;;;;4.26;52.52;100880.81;4367342;32;20339;-85
2021/12/14 03:33:06;;;;;;;187.57;137.93;;;;;;;4.53;51.88;100877.28;4358693;32;20315;-85
2021/12/14 03:35:44;;;;;;;169.18;133.55;;;;;;;4.66;51.31;100866.91;4360557;32;20292;-87
2021/12/14 03:38:17;;;;;;;171.87;134.55;;;;;;;4.44;51.89;100871.63;4359342;32;20308;-83
2021/12/14 03:40:54;;;;;;;177.97;135.90;;;;;;;4.32;51.99;100870.91;4362442;32;20302;-86
2021/12/14 03:43:22;;;;;;;185.95;138.20;;;;;;;4.52;51.28;100865.25;4340529;32;20278;-87
2021/12/14 03:45:51;;;;;;;176.43;135.70;;;;;;;4.62;50.60;100862.38;4362559;32;20604;-87
2021/12/14 03:48:24;;;;;;;184.20;137.68;;;;;;;4.54;51.15;100868.78;4357377;32;20673;-84
2021/12/14 03:50:52;;;;;;;182.40;136.27;;;;;;;4.20;51.71;100866.84;4352614;32;20281;-88
2021/12/14 03:53:21;;;;;;;189.10;138.02;;;;;;;4.44;51.54;100866.50;4362364;32;20285;-85
2021/12/14 03:56:02;;;;;;;196.45;141.20;;;;;;;4.51;51.13;100863.47;4355495;32;20554;-86
2021/12/14 03:58:35;;;;;;;209.27;144.87;;;;;;;4.38;51.21;100861.03;4346931;32;20273;-85
2021/12/14 04:01:13;;;;;;;242.37;151.87;;;;;;;4.32;51.38;100861.53;4352941;32;20280;-86
2021/12/14 04:03:44;;;;;;;259.05;157.27;;;;;;;3.92;52.66;100858.34;4353774;32;20323;-84
2021/12/14 04:06:11;;;;;;;262.25;156.73;;;;;;;3.79;52.89;100871.22;4370012;32;20332;-85
2021/12/14 04:08:39;;;;;;;256.38;156.85;;;;;;;4.34;51.51;100864.19;4397592;32;20344;-85
2021/12/14 04:11:08;;;;;;;281.93;163.27;;;;;;;4.09;52.03;100862.78;4384395;32;20269;-87
2021/12/14 04:13:38;;;;;;;286.37;164.00;;;;;;;4.09;51.99;100862.78;4384174;32;20880;-84
2021/12/14 04:16:06;;;;;;;285.33;164.02;;;;;;;4.40;51.18;100869.66;4414854;32;20334;-85
2021/12/14 04:18:34;;;;;;;290.38;164.90;;;;;;;4.42;50.74;100870.66;4384519;32;20323;-85
2021/12/14 04:21:04;;;;;;;294.95;169.35;;;;;;;4.18;51.37;100862.44;4383938;32;20281;-88
2021/12/14 04:23:58;;;;;;;296.83;167.10;;;;;;;4.47;50.67;100871.81;4392535;32;20281;-86
2021/12/14 04:26:27;;;;;;;296.02;165.80;;;;;;;4.32;50.95;100868.34;4384079;32;20297;-85
2021/12/14 04:28:58;;;;;;;288.98;166.52;;;;;;;4.32;50.93;100868.34;4385190;32;20273;-85
2021/12/14 04:31:35;;;;;;;282.77;163.10;;;;;;;4.50;50.48;100868.50;4389237;32;20304;-86
2021/12/14 04:34:04;;;;;;;288.10;164.65;;;;;;;4.59;50.14;100867.34;4407672;32;20328;-86
2021/12/14 04:36:32;;;;;;;273.70;160.80;;;;;;;4.53;50.14;100871.25;4396644;32;20658;-87
2021/12/14 04:39:28;;;;;;;283.90;164.70;;;;;;;4.45;50.28;100870.81;4390103;32;20379;-86
2021/12/14 04:53:10;;;;;;;302.42;169.37;;;;;;;3.99;50.99;100870.72;4395684;32;20283;-86
2021/12/14 04:55:43;;;;;;;310.65;170.70;;;;;;;4.05;51.05;100870.19;4386854;32;20269;-87
2021/12/14 04:58:12;;;;;;;340.03;181.40;;;;;;;4.12;50.98;100873.22;4407364;32;20328;-84
2021/12/14 05:00:44;;;;;;;306.38;168.87;;;;;;;3.95;51.33;100871.31;4385274;32;20271;-85
2021/12/14 05:03:15;;;;;;;314.05;172.68;;;;;;;3.97;50.75;100867.19;4389890;32;20295;-86
2021/12/14 05:05:50;;;;;;;306.05;171.05;;;;;;;4.09;50.24;100867.91;4385536;32;20280;-86
2021/12/14 05:10:54;;;;;;;315.10;172.27;;;;;;;3.89;50.94;100878.63;4406610;32;21099;-87
2021/12/14 05:13:28;;;;;;;298.60;168.95;;;;;;;4.17;49.97;100871.78;4406041;32;20270;-85
2021/12/14 05:15:56;;;;;;;297.83;168.47;;;;;;;4.26;49.82;100878.25;4388790;32;20264;-87
2021/12/14 05:18:23;;;;;;;297.67;169.35;;;;;;;4.08;49.91;100876.38;4406872;32;20367;-81
2021/12/14 05:20:51;;;;;;;291.85;166.52;;;;;;;4.00;49.94;100882.75;4405477;32;20271;-81
2021/12/14 05:23:24;;;;;;;271.85;160.32;;;;;;;3.84;50.55;100880.94;4399908;32;20291;-83
2021/12/14 05:25:53;;;;;;;279.00;166.57;;;;;;;3.94;50.63;100900.31;4389103;32;20771;-86
2021/12/14 05:28:20;;;;;;;289.67;166.40;;;;;;;3.96;50.28;100898.72;4396567;32;21175;-83
2021/12/14 05:30:51;;;;;;;337.10;182.77;;;;;;;4.13;49.83;100890.34;4397022;32;20338;-85
2021/12/14 05:33:22;;;;;;;474.83;212.35;;;;;;;3.76;51.11;100886.38;4396718;32;20402;-84
2021/12/14 05:35:54;;;;;;;553.12;219.55;;;;;;;3.49;51.76;100883.94;4416777;32;20285;-86
2021/12/14 05:38:28;;;;;;;537.58;220.43;;;;;;;3.55;52.05;100892.00;4397065;32;20279;-86
2021/12/14 05:41:09;;;;;;;443.65;211.75;;;;;;;3.80;51.24;100894.37;4399704;32;20337;-85
2021/12/14 05:43:37;;;;;;;441.42;211.95;;;;;;;4.05;50.58;100895.81;4403812;32;20337;-86
2021/12/14 05:46:06;;;;;;;459.55;212.52;;;;;;;4.04;50.45;100889.81;4401052;32;20419;-84
2021/12/14 05:48:36;;;;;;;470.58;211.02;;;;;;;4.13;49.97;100895.47;4403121;32;20290;-85
2021/12/14 05:51:07;;;;;;;473.90;211.20;;;;;;;3.98;49.95;100899.69;4399985;32;20291;-85
2021/12/14 05:53:38;;;;;;;486.27;214.25;;;;;;;4.00;49.73;100905.78;4399468;32;20332;-88
2021/12/14 05:56:10;;;;;;;493.23;212.63;;;;;;;3.92;50.22;100901.87;4397913;32;20330;-89
2021/12/14 05:58:39;;;;;;;486.95;215.18;;;;;;;4.11;49.11;100906.41;4400163;32;20349;-89
2021/12/14 06:01:19;;;;;;;508.17;218.88;;;;;;;4.10;49.21;100905.53;4424417;32;20279;-89
2021/12/14 06:03:53;;;;;;;498.33;220.55;;;;;;;4.27;48.66;100898.81;4422576;32;20273;-90
2021/12/14 06:06:27;;;;;;;489.43;218.07;;;;;;;4.06;49.13;100908.72;4411022;32;20663;-86
2021/12/14 06:09:09;;;;;;;501.13;216.85;;;;;;;3.81;49.76;100903.81;4399946;32;20346;-87
2021/12/14 06:11:37;;;;;;;502.67;214.40;;;;;;;3.94;49.83;100907.97;4395653;32;20779;-84
2021/12/14 06:14:11;;;;;;;493.55;215.75;;;;;;;3.87;49.70;100906.75;4386926;32;20442;-82
2021/12/14 06:16:38;;;;;;;498.27;215.20;;;;;;;4.04;49.16;100910.28;4382465;32;20635;-80
2021/12/14 06:19:14;;;;;;;499.60;212.10;;;;;;;3.83;49.36;100914.13;4383174;32;20296;-87
2021/12/14 06:21:42;;;;;;;503.98;215.55;;;;;;;3.96;49.10;100911.53;4387557;32;20281;-87
2021/12/14 06:24:11;;;;;;;505.77;213.45;;;;;;;3.90;49.65;100916.28;4389495;32;20276;-84
2021/12/14 06:26:45;;;;;;;516.45;211.90;;;;;;;3.85;49.12;100917.69;4391505;32;20350;-84
2021/12/14 06:29:18;;;;;;;523.65;212.65;;;;;;;4.08;48.22;100912.22;4384444;32;20364;-83
2021/12/14 06:31:46;;;;;;;524.22;219.23;;;;;;;3.92;48.54;100918.16;4394050;32;20337;-84
2021/12/14 06:34:21;;;;;;;489.15;214.50;;;;;;;3.77;48.87;100918.91;4410195;32;20283;-81
2021/12/14 06:37:06;;;;;;;472.45;210.40;;;;;;;3.62;49.29;100921.41;4399531;32;20259;-84
2021/12/14 06:40:10;;;;;;;436.08;206.75;;;;;;;3.57;49.70;100913.44;4399403;32;20309;-85
2021/12/14 06:43:08;;;;;;;403.65;206.77;;;;;;;3.84;49.33;100915.91;4399899;32;20290;-88
2021/12/14 06:45:39;;;;;;;405.70;207.27;;;;;;;3.73;49.07;100913.59;4397343;32;20689;-89
2021/12/14 06:48:20;;;;;;;367.65;199.27;;;;;;;3.77;48.96;100924.03;4391437;32;20700;-85
2021/12/14 06:50:50;;;;;;;369.05;200.05;;;;;;;3.86;49.05;100914.31;4387975;32;20301;-86
2021/12/14 06:53:20;;;;;;;382.15;202.38;;;;;;;4.06;48.51;100918.97;4384384;32;20273;-84
2021/12/14 06:55:55;;;;;;;378.17;205.65;;;;;;;3.90;48.68;100921.41;4384727;32;20288;-85
2021/12/14 06:58:31;;;;;;;379.23;207.03;;;;;;;3.73;49.31;100928.97;4392403;32;20346;-82
2021/12/14 07:01:14;;;;;;;364.48;200.30;;;;;;;3.88;48.82;100922.97;4396448;32;20334;-82
2021/12/14 07:03:41;;;;;;;345.50;192.63;;;;;;;3.70;49.18;100933.91;4391763;32;20522;-86
2021/12/14 07:06:11;;;;;;;332.70;183.18;;;;;;;3.85;49.46;100933.03;4395418;32;20356;-85
2021/12/14 07:08:42;;;;;;;325.70;175.32;;;;;;;4.26;48.67;100942.31;4406475;32;20972;-85
2021/12/14 07:11:09;;;;;;;320.90;176.50;;;;;;;4.22;47.96;100946.38;4413941;32;20301;-82
2021/12/14 07:16:22;;;;;;;297.75;168.40;;;;;;;4.48;47.30;100936.78;4411683;32;20303;-84
2021/12/14 07:18:53;;;;;;;302.92;168.90;;;;;;;4.42;47.57;100934.72;4409031;32;20311;-83
2021/12/14 07:21:37;;;;;;;300.40;170.68;;;;;;;4.58;47.75;100942.50;4402123;32;20283;-84
2021/12/14 07:24:22;;;;;;;289.52;167.80;;;;;;;4.32;48.66;100952.94;4397694;32;20310;-86
2021/12/14 07:27:09;;;;;;;285.48;165.52;;;;;;;4.56;48.47;100946.69;4404256;32;20290;-84
2021/12/14 07:29:36;;;;;;;282.70;166.02;;;;;;;4.59;48.06;100943.38;4400059;32;20264;-86
2021/12/14 07:32:04;;;;;;;270.60;163.03;;;;;;;4.50;48.18;100959.16;4385221;32;20267;-85
2021/12/14 07:34:31;;;;;;;277.25;162.43;;;;;;;4.61;48.51;100958.06;4399254;32;20275;-86
2021/12/14 07:36:58;;;;;;;280.90;164.55;;;;;;;4.69;48.81;100944.78;4398933;32;20282;-84
2021/12/14 07:39:25;;;;;;;270.65;164.00;;;;;;;4.64;48.77;100942.88;4384574;32;20840;-83
2021/12/14 07:41:54;;;;;;;240.68;152.48;;;;;;;4.81;48.92;100951.50;4398830;32;20280;-83
2021/12/14 07:44:33;;;;;;;230.32;151.12;;;;;;;4.96;48.49;100954.06;4402774;32;20288;-84
2021/12/14 07:47:05;;;;;;;234.15;151.45;;;;;;;4.89;48.63;100952.84;4404107;32;20759;-86
2021/12/14 07:49:43;;;;;;;222.73;148.85;;;;;;;4.99;48.82;100951.69;4405494;32;20273;-84
2021/12/14 07:52:18;;;;;;;216.70;147.23;;;;;;;5.29;48.18;100931.06;4410929;32;20630;-84
2021/12/14 07:54:58;;;;;;;170.40;134.30;;;;;;;5.32;48.48;100941.50;4405601;32;20284;-84
2021/12/14 07:57:28;;;;;;;2.40;2.30;;;;;;;5.30;49.13;100948.25;4399334;32;20279;-85
2021/12/14 08:00:09;;;;;;;;;;;;;;;5.60;48.24;100949.91;4386187;32;20281;-84
2021/12/14 08:02:41;;;;;;;;;;;;;;;5.49;48.81;100945.91;4402519;32;20021;-84
2021/12/14 08:05:12;;;;;;;;;;;;;;;5.62;48.83;100937.16;4407896;32;20000;-84
2021/12/14 08:07:41;;;;;;;;;;;;;;;5.78;48.32;100949.16;4411970;32;19974;-84
2021/12/14 08:10:15;;;;;;;;;;;;;;;5.96;47.94;100944.97;4401875;32;19989;-84
2021/12/14 08:12:42;;;;;;;;;;;;;;;5.96;48.28;100939.84;4407273;32;20023;-84
2021/12/14 08:15:11;;;;;;;;;;;;;;;6.05;48.01;100940.31;4411987;32;19994;-84
2021/12/14 08:17:38;;;;;;;;;;;;;;;6.29;47.63;100947.56;4402671;32;20080;-86
2021/12/14 08:20:14;;;;;;;;;;;;;;;6.16;48.19;100942.56;4408789;32;20002;-85
2021/12/14 08:22:53;;;;;;;;;;;;;;;6.24;47.61;100946.41;4400519;32;20346;-82
2021/12/14 08:25:25;;;;;;;;;;;;;;;6.57;47.08;100936.06;4404810;32;19969;-83
2021/12/14 08:27:56;;;;;;;;;;;;;;;6.69;47.11;100937.53;4403007;32;20022;-84
2021/12/14 08:30:23;;;;;;;;;;;;;;;6.53;47.30;100935.91;4400947;32;20000;-84
2021/12/14 08:32:50;;;;;;;;;;;;;;;6.50;47.41;100935.75;4400454;32;19978;-82
2021/12/14 08:35:17;;;;;;;;;;;;;;;6.63;47.49;100936.38;4408933;32;20740;-82
2021/12/14 08:37:46;;;;;;;;;;;;;;;6.79;47.44;100944.03;4400663;32;20000;-83
2021/12/14 08:40:15;;;;;;;;;;;;;;;6.98;47.99;100945.81;4407817;32;20487;-84
2021/12/14 08:42:50;;;;;;;;;;;;;;;6.94;47.87;100939.63;4399611;32;20143;-83
2021/12/14 08:45:26;;;;;;;;;;;;;;;7.08;47.66;100936.81;4400695;32;19989;-81
2021/12/14 08:47:55;;;;;;;;;;;;;;;7.06;48.13;100941.91;4400786;32;20326;-82
2021/12/14 08:50:22;;;;;;;;;;;;;;;7.20;47.49;100942.56;4405687;32;20004;-85
2021/12/14 08:52:50;;;;;;;;;;;;;;;7.32;47.13;100943.16;4400151;32;19998;-84
2021/12/14 08:55:22;;;;;;;;;;;;;;;7.32;46.85;100943.16;4419354;32;20001;-83
2021/12/14 08:57:51;;;;;;;;;;;;;;;7.30;48.26;100942.19;4401145;32;20362;-85
2021/12/14 09:00:23;;;;;;;;;;;;;;;7.63;47.07;100944.56;4399143;32;19996;-85
2021/12/14 09:02:53;;;;;;;;;;;;;;;7.08;49.93;100941.97;4407820;32;19978;-84
2021/12/14 09:05:22;;;;;;;;;;;;;;;6.94;50.53;100944.78;4402124;32;20026;-82
2021/12/14 09:07:50;;;;;;;;;;;;;;;7.74;47.29;100943.34;4403301;32;19978;-82
2021/12/14 09:10:21;;;;;;;;;;;;;;;7.57;47.17;100939.13;4384360;32;20033;-81
2021/12/14 09:12:49;;;;;;;;;;;;;;;7.34;48.06;100933.81;4400557;32;20002;-81
2021/12/14 09:15:23;;;;;;;;;;;;;;;7.49;47.75;100940.47;4399887;32;20912;-81
2021/12/14 09:17:51;;;;;;;;;;;;;;;7.58;47.92;100934.03;4400293;32;19989;-82
2021/12/14 09:20:21;;;;;;;;;;;;;;;7.72;47.51;100934.66;4423583;32;19978;-82
2021/12/14 09:22:51;;;;;;;;;;;;;;;8.05;47.45;100934.41;4394479;32;20044;-81
2021/12/14 09:25:19;;;;;;;;;;;;;;;7.98;47.27;100938.41;4389848;32;20027;-82
2021/12/14 09:27:46;;;;;;;;;;;;;;;7.86;47.27;100931.03;4395888;32;20056;-82
2021/12/14 09:30:14;;;;;;;;;;;;;;;7.71;49.90;100932.91;4382392;32;19985;-82
2021/12/14 09:32:42;;;;;;;;;;;;;;;8.02;47.22;100935.16;4381541;32;20020;-82
2021/12/14 09:35:13;;;;;;;;;;;;;;;7.84;47.50;100930.06;4382593;32;20237;-83
2021/12/14 09:37:40;;;;;;;;;;;;;;;7.77;48.33;100933.19;4386786;32;20462;-82
2021/12/14 09:40:10;;;;;;;;;;;;;;;8.00;47.80;100930.75;4391760;32;20032;-83
2021/12/14 09:42:37;;;;;;;;;;;;;;;8.28;46.41;100928.53;4417237;32;20068;-84
2021/12/14 09:45:11;;;;;;;;;;;;;;;8.30;46.81;100921.75;4385491;32;20041;-84
2021/12/14 09:47:40;;;;;;;;;;;;;;;8.43;46.76;100914.56;4398735;32;19977;-83
2021/12/14 09:50:09;;;;;;;;;;;;;;;8.47;46.44;100913.88;4392028;32;19969;-84
2021/12/14 09:52:37;;;;;;;;;;;;;;;8.43;46.57;100917.16;4421249;32;20008;-83
2021/12/14 09:55:07;;;;;;;;;;;;;;;8.67;46.40;100913.00;4416546;32;19990;-83
2021/12/14 09:57:36;;;;;;;;;;;;;;;8.89;45.47;100908.69;4394893;32;20034;-85
2021/12/14 10:00:29;;;;;;;;;;;;;;;8.86;46.34;100904.28;4392033;32;20028;-86
2021/12/14 10:02:57;;;;;;;;;;;;;;;9.10;45.51;100899.22;4384178;32;20397;-85
2021/12/14 10:05:26;;;;;;;;;;;;;;;8.74;46.63;100899.53;4384205;32;20028;-84
2021/12/14 10:07:54;;;;;;;;;;;;;;;8.89;46.16;100893.22;4388547;32;19990;-82
2021/12/14 10:10:22;;;;;;;;;;;;;;;8.85;46.05;100898.25;4399242;32;20659;-82
2021/12/14 10:12:51;;;;;;;;;;;;;;;8.96;46.40;100892.62;4400812;32;20019;-83
2021/12/14 10:15:18;;;;;;;;;;;;;;;9.05;46.46;100895.56;4408763;32;19986;-84
2021/12/14 10:17:46;;;;;;;;;;;;;;;9.13;45.64;100894.19;4412833;32;19995;-85
2021/12/14 10:20:15;;;;;;;;;;;;;;;9.36;44.90;100891.59;4408289;32;19977;-85
2021/12/14 10:22:42;;;;;;;;;;;;;;;9.41;45.47;100890.03;4406138;32;19985;-82
2021/12/14 10:25:11;;;;;;;;;;;;;;;9.53;44.88;100885.34;4409844;32;20311;-83
2021/12/14 10:27:38;;;;;;;;;;;;;;;9.60;44.54;100882.16;4398392;32;19989;-84
2021/12/14 10:30:10;;;;;;;;;;;;;;;9.49;44.99;100873.12;4407171;32;20031;-84
2021/12/14 10:32:37;;;;;;;;;;;;;;;9.64;44.72;100878.88;4397937;32;19981;-83
2021/12/14 10:35:08;;;;;;;;;;;;;;;9.75;44.21;100876.66;4398542;32;19989;-81
2021/12/14 10:37:59;;;;;;;;;;;;;;;9.73;44.39;100874.03;4406527;32;19997;-81
2021/12/14 10:43:16;;;;;;;;;;;;;;;9.90;43.49;100884.09;4395800;32;19982;-85
2021/12/14 10:46:19;;;;;;;;;;;;;;;9.96;43.91;100884.31;4406673;32;19980;-82
2021/12/14 10:48:46;;;;;;;;;;;;;;;9.95;44.65;100879.97;4373390;32;20021;-83
2021/12/14 10:51:17;;;;;;;;;;;;;;;10.11;44.51;100876.19;4407672;32;19989;-81
2021/12/14 10:53:46;;;;;;;;;;;;;;;10.27;43.56;100872.47;4416124;32;20468;-82
2021/12/14 10:56:35;;;;;;;;;;;;;;;10.01;44.88;100869.81;4411197;32;20733;-83
2021/12/14 10:59:04;;;;;;;;;;;;;;;10.14;44.12;100872.00;4405732;32;19978;-82
2021/12/14 11:01:34;;;;;;;;;;;;;;;9.92;45.00;100874.69;4398913;32;20377;-81
2021/12/14 11:04:09;;;;;;;;;;;;;;;10.18;43.60;100878.19;4398761;32;19977;-81
2021/12/14 11:06:37;;;;;;;;;;;;;;;9.96;43.89;100876.56;4407392;32;20027;-83
2021/12/14 11:11:46;;;;;;;;;;;;;;;9.91;44.51;100872.94;4404454;32;19991;-84
2021/12/14 11:14:15;;;;;;;;;;;;;;;9.91;44.39;100868.63;4402525;32;19977;-83
2021/12/14 11:19:41;;;;;;;;;;;;;;;10.11;44.30;100856.38;4387011;32;19986;-82
2021/12/14 11:22:08;;;;;;;;;;;;;;;9.95;44.19;100865.31;4398924;32;20339;-86
2021/12/14 11:24:36;;;;;;;;;;;;;;;9.90;44.32;100860.81;4400697;32;19973;-86
2021/12/14 11:27:32;;;;;;;;;;;;;;;9.84;44.50;100855.44;4401338;32;19978;-83
2021/12/14 11:30:08;;;;;;;;;;;;;;;9.86;44.31;100867.59;4401400;32;19988;-82
2021/12/14 11:32:40;;;;;;;;;;;;;;;9.74;44.99;100864.56;4398509;32;19970;-81
2021/12/14 11:35:15;;;;;;;;;;;;;;;9.89;45.04;100859.03;4399175;32;20275;-79
2021/12/14 11:37:42;;;;;;;;;;;;;;;9.95;44.83;100860.13;4408629;32;20040;-81
2021/12/14 11:40:11;;;;;;;;;;;;;;;9.98;44.88;100864.53;4402053;32;20333;-81
2021/12/14 11:42:38;;;;;;;;;;;;;;;10.03;44.60;100857.84;4406653;32;20004;-81
2021/12/14 11:45:08;;;;;;;;;;;;;;;9.99;44.99;100855.97;4398761;32;19986;-81
2021/12/14 11:50:10;;;;;;;;;;;;;;;10.11;44.54;100853.78;4405233;32;20027;-81
2021/12/14 11:52:56;;;;;;;;;;;;;;;10.29;43.71;100850.13;4407473;32;19973;-81
2021/12/14 11:55:27;;;;;;;;;;;;;;;10.16;43.93;100853.97;4407784;32;20016;-82
2021/12/14 11:58:12;;;;;;;;;;;;;;;10.17;43.85;100851.41;4399736;32;20005;-81
2021/12/14 12:00:45;;;;;;;;;;;;;;;10.18;44.04;100848.03;4400052;32;20035;-82
2021/12/14 12:03:24;;;;;;;;;;;;;;;10.17;44.03;100854.00;4402827;32;19973;-80
2021/12/14 12:06:44;;;;;;;;;;;;;;;10.27;43.99;100851.75;4404003;32;19988;-81
2021/12/14 12:12:00;;;;;;;;;;;;;;;10.38;43.63;100845.25;4414551;32;20346;-81
2021/12/14 12:14:27;;;;;;;;;;;;;;;9.67;46.14;100841.91;4413590;32;19981;-81
2021/12/14 12:16:55;;;;;;;;;;;;;;;10.15;44.66;100847.91;4415241;32;20064;-81
2021/12/14 12:19:27;;;;;;;;;;;;;;;10.32;44.31;100839.88;3935964;32;10001220;-81
2021/12/14 12:21:54;;;;;;;;;;;;;;;10.47;43.79;100842.97;4415205;32;20004;-81
2021/12/14 12:24:30;;;;;;;;;;;;;;;10.60;43.49;100842.53;4415732;32;19988;-79
2021/12/14 12:27:38;;;;;;;;;;;;;;;10.65;43.33;100840.94;4415154;32;19969;-80
2021/12/14 12:30:10;;;;;;;;;;;;;;;10.68;43.72;100843.63;4387776;32;20020;-84
2021/12/14 12:32:37;;;;;;;;;;;;;;;10.82;43.41;100838.03;4082233;32;10001811;-81
2021/12/14 12:35:24;;;;;;;;;;;;;;;10.86;42.81;100837.28;4399689;32;19995;-82
2021/12/14 12:37:51;;;;;;;;;;;;;;;10.81;42.67;100841.44;4109582;32;10001688;-82
2021/12/14 12:40:20;;;;;;;;;;;;;;;10.74;41.75;100839.50;4109666;32;10000786;-82